Time;durP1;ratioP1;P1;durP2;ratioP2;P2;SDS_P1;SDS_P2;PMS_P1;PMS_P2;Temp;Humidity;BMP_temperature;BMP_pressure;BME280_temperature;BME280_humidity;BME280_pressure;Samples;Min_cycle;Max_cycle;Signal;HPM_P1;HPM_P2
2022/05/29 00:01:21;;;;;;;3.53;0.70;;;14.90;68.20;;;;;;5020921;28;20041;-73
2022/05/29 00:03:49;;;;;;;1.42;0.55;;;14.80;68.00;;;;;;5021666;28;20099;-73
2022/05/29 00:06:17;;;;;;;2.10;0.40;;;14.80;67.50;;;;;;5025034;28;20040;-73
2022/05/29 00:08:45;;;;;;;4.18;0.30;;;14.80;69.20;;;;;;5040126;28;20125;-73
2022/05/29 00:11:14;;;;;;;1.27;0.50;;;14.80;68.50;;;;;;5021110;28;20050;-73
2022/05/29 00:13:44;;;;;;;2.78;0.40;;;14.80;69.10;;;;;;5023519;28;20125;-73
2022/05/29 00:16:11;;;;;;;2.08;0.63;;;14.70;69.70;;;;;;5023957;28;20059;-73
2022/05/29 00:18:39;;;;;;;2.00;0.50;;;14.70;70.70;;;;;;5021451;28;20103;-73
2022/05/29 00:21:06;;;;;;;2.15;0.57;;;14.60;69.70;;;;;;5006104;28;20060;-73
2022/05/29 00:23:40;;;;;;;4.88;1.08;;;14.60;69.40;;;;;;5023423;28;20041;-73
2022/05/29 00:26:08;;;;;;;4.00;0.55;;;14.60;70.50;;;;;;5022714;28;20146;-73
2022/05/29 00:28:35;;;;;;;2.33;0.52;;;14.60;71.90;;;;;;5021799;28;20045;-73
2022/05/29 00:31:02;;;;;;;1.67;0.40;;;14.60;71.80;;;;;;5025412;28;20050;-73
2022/05/29 00:33:30;;;;;;;2.90;0.55;;;14.70;71.20;;;;;;5023514;28;20091;-73
2022/05/29 00:35:57;;;;;;;2.95;0.47;;;14.70;71.20;;;;;;5022253;28;20045;-73
2022/05/29 00:38:24;;;;;;;5.03;1.05;;;14.70;71.50;;;;;;5008161;28;20095;-73
2022/05/29 00:41:22;;;;;;;3.35;0.70;;;14.60;70.90;;;;;;5005227;28;20064;-73
2022/05/29 00:44:12;;;;;;;2.20;0.40;;;14.60;69.30;;;;;;5024371;28;20439;-73
2022/05/29 00:47:01;;;;;;;2.95;0.52;;;14.60;68.00;;;;;;5025732;28;20041;-73
2022/05/29 00:49:31;;;;;;;1.67;0.82;;;14.50;67.20;;;;;;5024004;28;20040;-73
2022/05/29 00:52:01;;;;;;;1.75;0.50;;;14.60;68.80;;;;;;5024099;28;20049;-73
2022/05/29 00:54:33;;;;;;;1.50;0.32;;;14.60;68.60;;;;;;5022862;28;20052;-73
2022/05/29 00:57:01;;;;;;;2.60;0.57;;;14.60;67.90;;;;;;5022104;28;20045;-73
2022/05/29 00:59:31;;;;;;;1.30;0.30;;;14.60;67.10;;;;;;5025678;28;20299;-73
2022/05/29 01:02:02;;;;;;;1.70;0.40;;;14.60;67.60;;;;;;5023383;28;20049;-73
2022/05/29 01:04:32;;;;;;;2.25;0.60;;;14.50;67.60;;;;;;5024348;28;20033;-73
2022/05/29 01:07:03;;;;;;;1.75;0.55;;;14.50;67.10;;;;;;5017068;28;21553;-73
2022/05/29 01:09:31;;;;;;;1.58;0.32;;;14.50;68.60;;;;;;5039125;28;22520;-73
2022/05/29 01:12:02;;;;;;;1.20;0.35;;;14.40;67.10;;;;;;5021067;28;20034;-73
2022/05/29 01:14:53;;;;;;;1.58;0.30;;;14.40;68.60;;;;;;5021271;28;20038;-73
2022/05/29 01:17:45;;;;;;;4.25;0.50;;;14.40;69.00;;;;;;5020833;28;20049;-73
2022/05/29 01:20:31;;;;;;;1.52;0.30;;;14.50;68.40;;;;;;5020784;28;20084;-73
2022/05/29 01:23:10;;;;;;;2.28;0.93;;;14.40;69.00;;;;;;5021304;28;20057;-73
2022/05/29 01:26:22;;;;;;;1.83;0.80;;;14.40;68.70;;;;;;5039129;28;20037;-73
2022/05/29 01:29:02;;;;;;;0.98;0.20;;;14.40;69.40;;;;;;5020934;28;20381;-73
2022/05/29 01:31:37;;;;;;;2.65;0.55;;;14.40;69.10;;;;;;5020548;28;20081;-73
2022/05/29 01:34:38;;;;;;;2.72;0.40;;;14.40;69.40;;;;;;5024408;28;20469;-73
2022/05/29 01:37:21;;;;;;;2.97;0.57;;;14.40;68.00;;;;;;5022818;28;20144;-73
2022/05/29 01:39:57;;;;;;;2.28;0.40;;;14.40;69.60;;;;;;5021873;28;20063;-73
2022/05/29 01:42:48;;;;;;;2.92;0.40;;;14.40;69.00;;;;;;5022623;28;20060;-73
2022/05/29 01:45:33;;;;;;;3.65;0.50;;;14.30;69.10;;;;;;5019326;28;20073;-73
2022/05/29 01:48:22;;;;;;;4.20;0.50;;;14.30;69.30;;;;;;5020574;28;20045;-73
2022/05/29 01:50:57;;;;;;;2.05;0.52;;;14.30;69.80;;;;;;5021003;28;20145;-73
2022/05/29 01:53:33;;;;;;;1.50;0.50;;;14.30;70.70;;;;;;5022885;28;20534;-73
2022/05/29 01:56:07;;;;;;;1.48;0.40;;;14.30;71.10;;;;;;5021193;28;20130;-73
2022/05/29 01:58:42;;;;;;;3.28;0.45;;;14.20;70.50;;;;;;5022422;28;20522;-73
2022/05/29 02:01:11;;;;;;;2.28;1.13;;;14.20;70.20;;;;;;5021837;28;20053;-73
2022/05/29 02:03:45;;;;;;;1.92;0.50;;;14.20;71.50;;;;;;5021491;28;20743;-73
2022/05/29 02:06:24;;;;;;;2.55;1.00;;;14.20;70.70;;;;;;5023724;28;21000;-73
2022/05/29 02:08:51;;;;;;;1.67;0.40;;;14.30;70.20;;;;;;5021575;28;20882;-73
2022/05/29 02:11:25;;;;;;;2.65;0.47;;;14.30;71.00;;;;;;5022791;28;20527;-73
2022/05/29 02:14:07;;;;;;;2.35;0.40;;;14.20;70.50;;;;;;5020780;28;20408;-73
2022/05/29 02:16:43;;;;;;;4.70;0.60;;;14.20;71.40;;;;;;5033884;28;20053;-73
2022/05/29 02:19:19;;;;;;;2.35;0.65;;;14.20;71.70;;;;;;5017318;28;20392;-73
2022/05/29 02:21:50;;;;;;;2.15;0.60;;;14.20;72.50;;;;;;5019911;28;20092;-73
2022/05/29 02:24:22;;;;;;;3.03;0.35;;;14.20;73.00;;;;;;5020698;28;20053;-73
2022/05/29 02:27:03;;;;;;;1.60;0.40;;;14.20;72.80;;;;;;5023210;28;20481;-73
2022/05/29 02:29:30;;;;;;;1.55;0.30;;;14.20;72.40;;;;;;5022050;28;20904;-73
2022/05/29 02:32:05;;;;;;;2.28;0.40;;;14.20;71.90;;;;;;5012079;28;20046;-73
2022/05/29 02:34:41;;;;;;;1.75;0.40;;;14.20;73.00;;;;;;5010921;28;20124;-73
2022/05/29 02:37:30;;;;;;;3.60;0.40;;;14.10;71.80;;;;;;5020956;28;20100;-73
2022/05/29 02:40:17;;;;;;;2.58;0.55;;;14.10;71.50;;;;;;5036558;28;20140;-73
2022/05/29 02:42:59;;;;;;;2.38;0.60;;;14.10;71.30;;;;;;5049062;28;20037;-73
2022/05/29 02:45:37;;;;;;;2.92;1.10;;;14.10;72.10;;;;;;5031995;28;20141;-74
2022/05/29 02:48:23;;;;;;;2.17;0.30;;;14.10;71.80;;;;;;5018604;28;20966;-73
2022/05/29 02:51:05;;;;;;;3.28;0.65;;;14.10;70.90;;;;;;5016638;28;20129;-73
2022/05/29 02:53:34;;;;;;;5.87;0.40;;;14.20;70.10;;;;;;5034501;28;20140;-73
2022/05/29 02:56:05;;;;;;;3.20;0.60;;;14.20;70.20;;;;;;5022516;28;20589;-73
2022/05/29 02:58:35;;;;;;;0.95;0.30;;;14.20;70.70;;;;;;5021893;28;20052;-73
2022/05/29 03:01:20;;;;;;;2.95;0.45;;;14.20;70.10;;;;;;5007647;28;20327;-73
2022/05/29 03:03:57;;;;;;;1.13;0.38;;;14.20;70.20;;;;;;5016526;28;20481;-73
2022/05/29 03:06:50;;;;;;;2.00;0.40;;;14.20;70.20;;;;;;5020353;28;20051;-73
2022/05/29 03:09:35;;;;;;;2.85;0.52;;;14.10;69.40;;;;;;5021143;28;20092;-73
2022/05/29 03:12:12;;;;;;;3.15;0.65;;;14.10;69.70;;;;;;5021463;28;20128;-73
2022/05/29 03:14:53;;;;;;;2.65;0.50;;;14.10;69.80;;;;;;5025851;28;20065;-73
2022/05/29 03:17:20;;;;;;;1.00;0.40;;;14.10;69.90;;;;;;5020009;28;20047;-73
2022/05/29 03:20:08;;;;;;;3.13;0.50;;;14.10;70.70;;;;;;5023584;28;20068;-73
2022/05/29 03:22:44;;;;;;;3.03;0.68;;;14.20;71.40;;;;;;5006605;28;20128;-73
2022/05/29 03:25:30;;;;;;;3.15;0.52;;;14.20;71.50;;;;;;5023020;28;20042;-72
2022/05/29 03:28:04;;;;;;;3.53;0.60;;;14.20;71.00;;;;;;5022803;28;20161;-72
2022/05/29 03:30:37;;;;;;;1.95;0.50;;;14.20;71.70;;;;;;5023780;28;20515;-72
2022/05/29 03:33:07;;;;;;;2.42;0.85;;;14.10;71.20;;;;;;5026509;28;20036;-72
2022/05/29 03:35:41;;;;;;;1.80;0.50;;;14.20;70.20;;;;;;5024548;28;20052;-72
2022/05/29 03:38:08;;;;;;;1.05;0.47;;;14.20;70.20;;;;;;5024003;28;20052;-72
2022/05/29 03:40:36;;;;;;;2.30;0.40;;;14.10;69.70;;;;;;5023931;28;20045;-72
2022/05/29 03:43:03;;;;;;;6.35;0.60;;;14.10;69.50;;;;;;5024471;28;20099;-72
2022/05/29 03:45:31;;;;;;;1.63;0.50;;;14.10;69.00;;;;;;5020473;28;20125;-72
2022/05/29 03:47:58;;;;;;;2.28;0.40;;;14.10;68.50;;;;;;5022983;28;20037;-73
2022/05/29 03:50:26;;;;;;;2.28;0.38;;;14.20;68.40;;;;;;5025605;28;20041;-72
2022/05/29 03:52:53;;;;;;;2.75;0.65;;;14.20;69.00;;;;;;5023775;28;20038;-72
2022/05/29 03:55:24;;;;;;;4.53;0.70;;;14.20;68.70;;;;;;5005511;28;20496;-72
2022/05/29 03:57:52;;;;;;;1.15;0.52;;;14.10;68.60;;;;;;5025442;28;20077;-72
2022/05/29 04:00:21;;;;;;;3.42;0.60;;;14.00;68.90;;;;;;5024243;28;20092;-72
2022/05/29 04:02:48;;;;;;;0.75;0.30;;;14.00;68.30;;;;;;5026097;28;20045;-72
2022/05/29 04:05:19;;;;;;;1.35;0.30;;;14.00;67.40;;;;;;5023753;28;20052;-72
2022/05/29 04:13:22;;;;;;;0.95;0.30;;;14.00;67.50;;;;;;5023012;28;20116;-72
2022/05/29 04:15:49;;;;;;;1.48;0.20;;;13.90;66.80;;;;;;5023969;28;20353;-72
2022/05/29 04:18:19;;;;;;;2.95;0.88;;;13.90;67.70;;;;;;5021766;28;20053;-73
2022/05/29 04:20:49;;;;;;;3.30;0.40;;;14.00;67.20;;;;;;5025347;28;20037;-73
2022/05/29 04:23:16;;;;;;;1.10;0.20;;;14.00;67.80;;;;;;5052018;28;20092;-73
2022/05/29 04:25:44;;;;;;;4.70;0.38;;;14.00;68.40;;;;;;5020325;28;20049;-72
2022/05/29 04:28:11;;;;;;;2.80;0.43;;;14.00;68.10;;;;;;5022312;28;20052;-72
2022/05/29 04:30:38;;;;;;;3.35;0.30;;;14.10;68.50;;;;;;5021897;28;20048;-72
2022/05/29 04:33:06;;;;;;;3.30;0.63;;;14.10;67.70;;;;;;5021074;28;20443;-72
2022/05/29 04:35:39;;;;;;;1.63;0.22;;;14.10;67.60;;;;;;5020546;28;20049;-72
2022/05/29 04:38:06;;;;;;;1.33;0.25;;;14.10;67.30;;;;;;5021765;28;20037;-72
2022/05/29 04:40:36;;;;;;;1.63;0.30;;;14.20;68.10;;;;;;5021180;28;20049;-72
2022/05/29 04:43:04;;;;;;;4.68;0.40;;;14.00;66.50;;;;;;5022471;28;20069;-72
2022/05/29 04:45:32;;;;;;;2.30;0.40;;;14.10;67.40;;;;;;5021872;28;20041;-72
2022/05/29 04:47:59;;;;;;;0.90;0.40;;;14.20;67.60;;;;;;5022283;28;20045;-72
2022/05/29 04:50:26;;;;;;;2.63;0.38;;;14.20;66.60;;;;;;5022930;28;20049;-73
2022/05/29 04:52:53;;;;;;;1.85;0.50;;;14.20;67.30;;;;;;5021510;28;20045;-73
2022/05/29 04:55:21;;;;;;;2.33;0.20;;;14.30;67.90;;;;;;5022744;28;20049;-72
2022/05/29 04:57:48;;;;;;;1.15;0.30;;;14.30;65.60;;;;;;5016450;28;20423;-74
2022/05/29 05:00:15;;;;;;;3.28;1.17;;;14.30;66.30;;;;;;5018621;28;20052;-72
2022/05/29 05:02:43;;;;;;;1.85;0.30;;;14.30;65.60;;;;;;4994390;28;20053;-72
2022/05/29 05:05:11;;;;;;;0.80;0.30;;;14.40;66.40;;;;;;5009181;28;20057;-71
2022/05/29 05:07:38;;;;;;;0.88;0.20;;;14.40;65.70;;;;;;4995918;28;20049;-72
2022/05/29 05:10:11;;;;;;;1.33;0.40;;;14.40;65.80;;;;;;4996880;28;20072;-72
2022/05/29 05:12:39;;;;;;;1.70;0.20;;;14.40;65.60;;;;;;5011993;28;20052;-72
2022/05/29 05:15:08;;;;;;;0.80;0.10;;;14.40;65.40;;;;;;4977237;28;20045;-72
2022/05/29 05:17:35;;;;;;;1.55;0.32;;;14.40;65.50;;;;;;4994790;28;20045;-71
2022/05/29 05:20:04;;;;;;;1.02;0.15;;;14.50;66.20;;;;;;4998588;28;20050;-74
2022/05/29 05:22:32;;;;;;;2.17;0.30;;;14.40;65.60;;;;;;4991736;28;20061;-73
2022/05/29 05:24:59;;;;;;;5.40;1.20;;;14.30;65.50;;;;;;5012505;28;20056;-72
2022/05/29 05:27:26;;;;;;;1.90;0.40;;;14.30;64.50;;;;;;4987143;28;20053;-73
2022/05/29 05:29:53;;;;;;;0.63;0.20;;;14.30;65.10;;;;;;5004067;28;20057;-72
2022/05/29 05:32:20;;;;;;;2.00;0.65;;;14.30;65.00;;;;;;5032867;28;20084;-72
2022/05/29 05:34:47;;;;;;;1.08;0.20;;;14.40;65.30;;;;;;5006663;28;20045;-72
2022/05/29 05:37:16;;;;;;;0.63;0.30;;;14.50;64.20;;;;;;4999112;28;20049;-72
2022/05/29 05:39:44;;;;;;;0.65;0.10;;;14.50;64.00;;;;;;4973068;28;20056;-72
2022/05/29 05:42:11;;;;;;;1.98;0.50;;;14.50;63.90;;;;;;5002226;28;20060;-73
2022/05/29 05:44:38;;;;;;;0.93;0.13;;;14.70;64.20;;;;;;5016997;28;20053;-72
2022/05/29 05:47:07;;;;;;;1.17;0.20;;;14.80;64.30;;;;;;5005602;28;20054;-73
2022/05/29 05:49:36;;;;;;;0.75;0.10;;;14.80;64.00;;;;;;5004448;28;20045;-72
2022/05/29 05:52:04;;;;;;;0.70;0.20;;;14.70;63.80;;;;;;5005426;28;20054;-73
2022/05/29 05:54:32;;;;;;;2.53;0.20;;;14.90;63.90;;;;;;5000831;28;20050;-73
2022/05/29 05:56:59;;;;;;;0.60;0.20;;;14.90;63.30;;;;;;5011521;28;20056;-72
2022/05/29 05:59:26;;;;;;;1.65;0.30;;;14.90;61.90;;;;;;5005382;28;20053;-72
2022/05/29 06:01:54;;;;;;;3.08;0.20;;;14.90;60.70;;;;;;4993680;28;20053;-73
2022/05/29 06:04:21;;;;;;;0.75;0.10;;;14.90;60.90;;;;;;5005270;28;20045;-73
2022/05/29 06:06:49;;;;;;;1.02;0.20;;;15.00;61.00;;;;;;4999324;28;20042;-73
2022/05/29 06:09:20;;;;;;;1.02;0.10;;;15.10;60.70;;;;;;4992105;28;20046;-72
2022/05/29 06:11:48;;;;;;;0.82;0.20;;;15.10;60.10;;;;;;4996039;28;20053;-73
2022/05/29 06:14:15;;;;;;;0.93;0.20;;;15.20;61.10;;;;;;5003005;28;21119;-73
2022/05/29 06:16:43;;;;;;;1.42;0.10;;;15.20;60.30;;;;;;4997646;28;21262;-73
2022/05/29 06:19:10;;;;;;;0.43;0.10;;;15.30;61.20;;;;;;4998302;28;20063;-72
2022/05/29 06:21:38;;;;;;;1.77;0.17;;;15.20;59.90;;;;;;4983173;28;22395;-73
2022/05/29 06:24:06;;;;;;;1.95;0.15;;;15.20;60.50;;;;;;4994738;28;20064;-73
2022/05/29 06:26:33;;;;;;;1.10;0.15;;;15.20;61.30;;;;;;4995383;28;20050;-73
2022/05/29 06:29:01;;;;;;;0.68;0.10;;;15.40;61.00;;;;;;4994611;28;20046;-73
2022/05/29 06:31:28;;;;;;;1.45;0.20;;;15.50;62.10;;;;;;5015801;28;20126;-73
2022/05/29 06:33:55;;;;;;;2.45;0.20;;;15.50;61.70;;;;;;4980417;28;20053;-73
2022/05/29 06:36:24;;;;;;;1.10;0.30;;;15.60;62.30;;;;;;4992479;28;22470;-73
2022/05/29 06:38:53;;;;;;;1.42;0.40;;;15.80;60.20;;;;;;4996479;28;20056;-73
2022/05/29 06:41:23;;;;;;;0.60;0.20;;;15.90;60.70;;;;;;4997768;28;20061;-73
2022/05/29 06:43:52;;;;;;;1.10;0.20;;;15.80;60.40;;;;;;4995999;28;20504;-73
2022/05/29 06:46:21;;;;;;;0.50;0.15;;;15.80;60.00;;;;;;5005657;28;20057;-73
2022/05/29 06:48:48;;;;;;;0.95;0.10;;;15.80;60.20;;;;;;4998529;28;20226;-73
2022/05/29 06:51:21;;;;;;;1.80;0.17;;;15.80;60.20;;;;;;5014817;28;20049;-73
2022/05/29 06:53:51;;;;;;;1.73;0.30;;;15.90;60.30;;;;;;5007978;28;20045;-73
2022/05/29 06:56:19;;;;;;;3.25;0.88;;;15.90;60.00;;;;;;5016399;28;20050;-73
2022/05/29 06:58:46;;;;;;;0.63;0.40;;;16.00;60.50;;;;;;5000824;28;20054;-73
2022/05/29 07:07:01;;;;;;;;;;;16.00;61.50;;;;;;5000036;28;20057;-73
2022/05/29 07:09:34;;;;;;;1.67;0.77;;;16.10;61.20;;;;;;5030166;28;19929;-73
2022/05/29 07:12:12;;;;;;;0.75;0.20;;;16.00;59.30;;;;;;4998422;28;20049;-73
2022/05/29 07:14:44;;;;;;;2.70;0.30;;;16.00;59.40;;;;;;5017575;28;20052;-74
2022/05/29 07:17:11;;;;;;;0.82;0.15;;;16.10;58.40;;;;;;4998821;28;20068;-73
2022/05/29 07:19:40;;;;;;;2.83;0.17;;;16.10;58.70;;;;;;4999447;28;20056;-73
2022/05/29 07:22:08;;;;;;;0.73;0.20;;;16.20;58.60;;;;;;5015209;28;20053;-73
2022/05/29 07:24:36;;;;;;;0.35;0.10;;;16.30;59.30;;;;;;4997067;28;20049;-74
2022/05/29 07:27:03;;;;;;;0.70;0.20;;;16.40;60.00;;;;;;5034819;28;20045;-73
2022/05/29 07:29:30;;;;;;;1.85;0.20;;;16.50;60.20;;;;;;5022684;28;20068;-73
2022/05/29 07:31:58;;;;;;;0.65;0.10;;;16.60;60.00;;;;;;4998944;28;20053;-73
2022/05/29 07:34:27;;;;;;;1.02;0.20;;;16.60;58.00;;;;;;5018300;28;20046;-73
2022/05/29 07:37:02;;;;;;;0.88;0.13;;;16.60;58.00;;;;;;5001931;28;20064;-73
2022/05/29 07:39:37;;;;;;;0.93;0.10;;;16.60;56.20;;;;;;5003396;28;20053;-74
2022/05/29 07:44:52;;;;;;;3.05;0.15;;;16.90;56.70;;;;;;5005597;28;20183;-74
2022/05/29 07:47:21;;;;;;;1.77;0.20;;;17.00;55.00;;;;;;5000266;28;22667;-74
2022/05/29 07:49:49;;;;;;;0.65;0.10;;;17.10;55.60;;;;;;5015569;28;20042;-75
2022/05/29 07:52:16;;;;;;;3.05;0.20;;;17.20;55.00;;;;;;5006942;28;20053;-74
2022/05/29 07:54:43;;;;;;;1.70;0.10;;;17.20;53.80;;;;;;5005424;28;20072;-74
2022/05/29 07:57:10;;;;;;;4.35;0.20;;;17.10;54.90;;;;;;5002556;28;20045;-74
2022/05/29 07:59:37;;;;;;;1.73;0.20;;;17.10;54.40;;;;;;5004053;28;20519;-74
2022/05/29 08:02:07;;;;;;;2.15;0.20;;;17.30;55.30;;;;;;5022564;28;20061;-74
2022/05/29 08:04:35;;;;;;;3.58;0.40;;;17.20;53.70;;;;;;4994477;28;20084;-74
2022/05/29 08:07:02;;;;;;;4.95;0.10;;;17.20;53.90;;;;;;5003725;28;22494;-75
2022/05/29 08:09:29;;;;;;;0.55;0.10;;;17.30;53.50;;;;;;4992031;28;21045;-75
2022/05/29 08:11:57;;;;;;;0.95;0.30;;;17.30;55.10;;;;;;4979173;28;20746;-74
2022/05/29 08:14:26;;;;;;;1.58;0.25;;;17.40;54.30;;;;;;5022325;28;20520;-74
2022/05/29 08:16:53;;;;;;;0.75;0.10;;;17.60;55.40;;;;;;5015375;28;20042;-74
2022/05/29 08:19:20;;;;;;;0.80;0.20;;;17.60;52.90;;;;;;5019799;28;20057;-74
2022/05/29 08:21:47;;;;;;;2.38;0.10;;;17.40;52.60;;;;;;5012856;28;22424;-74
2022/05/29 08:30:41;;;;;;;4.00;0.20;;;17.40;53.00;;;;;;5035362;28;20088;-75
2022/05/29 08:33:21;;;;;;;0.60;0.10;;;17.40;52.80;;;;;;5000952;28;22449;-74
2022/05/29 08:36:10;;;;;;;0.77;0.10;;;17.20;52.70;;;;;;4995287;28;20041;-75
2022/05/29 08:38:40;;;;;;;2.17;0.20;;;17.30;53.10;;;;;;4993901;28;20059;-75
2022/05/29 08:41:21;;;;;;;0.55;0.10;;;17.40;53.20;;;;;;4999650;28;20049;-74
2022/05/29 08:44:07;;;;;;;0.73;0.13;;;17.30;51.90;;;;;;5016201;28;20892;-74
2022/05/29 08:46:44;;;;;;;1.55;0.20;;;17.30;52.30;;;;;;5005288;28;20045;-73
2022/05/29 08:49:19;;;;;;;4.40;0.10;;;17.30;52.40;;;;;;5027539;28;20049;-75
2022/05/29 08:51:49;;;;;;;0.85;0.10;;;17.40;53.00;;;;;;4991758;28;20127;-75
2022/05/29 08:54:40;;;;;;;0.35;0.10;;;17.50;53.10;;;;;;4972019;28;22348;-75
2022/05/29 08:57:18;;;;;;;2.03;0.10;;;17.50;52.80;;;;;;4988224;28;20061;-74
2022/05/29 08:59:57;;;;;;;0.55;0.15;;;17.40;53.60;;;;;;4995322;28;20053;-75
2022/05/29 09:02:36;;;;;;;2.55;0.35;;;17.40;53.50;;;;;;5001683;28;20053;-74
2022/05/29 09:05:19;;;;;;;1.08;0.20;;;17.40;53.00;;;;;;4988963;28;20048;-74
2022/05/29 09:07:49;;;;;;;1.55;0.15;;;17.30;53.10;;;;;;5014538;28;20049;-74
2022/05/29 09:10:38;;;;;;;0.63;0.10;;;17.40;53.60;;;;;;4972063;28;20049;-76
2022/05/29 09:13:13;;;;;;;1.65;0.17;;;17.50;52.80;;;;;;4995670;28;20052;-75
2022/05/29 09:15:49;;;;;;;3.58;0.40;;;17.60;54.20;;;;;;5012711;28;20849;-75
2022/05/29 09:18:27;;;;;;;2.13;0.57;;;17.50;53.40;;;;;;4991414;28;20049;-74
2022/05/29 09:21:03;;;;;;;1.48;0.10;;;17.50;54.10;;;;;;4995417;28;20077;-74
2022/05/29 09:23:38;;;;;;;2.50;0.10;;;17.50;53.60;;;;;;4995386;28;20056;-74
2022/05/29 09:26:10;;;;;;;1.58;0.10;;;17.50;54.00;;;;;;5003798;28;20048;-74
2022/05/29 09:28:39;;;;;;;1.02;0.10;;;17.60;54.20;;;;;;5011943;28;21074;-74
2022/05/29 09:31:21;;;;;;;2.05;0.47;;;17.60;53.10;;;;;;5017882;28;20071;-74
2022/05/29 09:33:49;;;;;;;1.20;0.15;;;17.50;52.90;;;;;;4985174;28;20049;-74
2022/05/29 09:36:50;;;;;;;1.20;0.30;;;17.60;53.10;;;;;;4991500;28;20048;-74
2022/05/29 09:39:23;;;;;;;1.45;0.20;;;17.70;54.00;;;;;;5011755;28;20263;-74
2022/05/29 09:42:08;;;;;;;2.50;0.20;;;17.80;54.00;;;;;;4997509;28;20049;-74
2022/05/29 09:44:36;;;;;;;1.90;0.28;;;17.70;54.60;;;;;;4995471;28;20061;-74
2022/05/29 09:50:11;;;;;;;4.57;0.15;;;17.70;53.40;;;;;;4995393;28;20050;-73
2022/05/29 09:52:43;;;;;;;2.33;0.20;;;17.70;53.50;;;;;;5010111;28;20041;-74
2022/05/29 09:55:28;;;;;;;3.40;0.20;;;17.70;53.90;;;;;;5000352;28;20042;-74
2022/05/29 09:58:03;;;;;;;3.17;0.15;;;17.60;53.40;;;;;;4996241;28;20069;-74
2022/05/29 10:00:38;;;;;;;1.85;0.20;;;17.60;53.50;;;;;;4984600;28;20095;-73
2022/05/29 10:03:11;;;;;;;0.30;0.10;;;17.60;54.60;;;;;;5010132;28;22518;-73
2022/05/29 10:05:42;;;;;;;1.85;0.10;;;17.70;53.50;;;;;;5009951;28;20056;-74
2022/05/29 10:08:26;;;;;;;0.88;0.10;;;17.90;54.40;;;;;;5004538;28;20045;-74
2022/05/29 10:10:54;;;;;;;2.15;0.57;;;18.00;54.10;;;;;;4975651;28;20049;-74
2022/05/29 10:13:38;;;;;;;2.30;0.10;;;18.00;53.30;;;;;;4999754;28;20050;-74
2022/05/29 10:16:07;;;;;;;0.57;0.20;;;18.00;54.70;;;;;;4996219;28;20144;-74
2022/05/29 10:18:36;;;;;;;1.50;0.20;;;18.00;54.20;;;;;;4990814;28;20712;-73
2022/05/29 10:21:27;;;;;;;2.45;0.17;;;18.00;54.80;;;;;;5009912;28;20150;-74
2022/05/29 10:24:10;;;;;;;0.40;0.10;;;18.10;54.00;;;;;;4995973;28;20053;-74
2022/05/29 10:26:37;;;;;;;1.92;0.10;;;18.10;54.60;;;;;;4994807;28;20512;-74
2022/05/29 10:29:21;;;;;;;2.78;0.20;;;18.20;54.90;;;;;;4978452;28;22389;-75
2022/05/29 10:31:50;;;;;;;2.30;0.30;;;18.10;54.40;;;;;;4996121;28;20041;-74
2022/05/29 10:34:31;;;;;;;0.75;0.13;;;18.20;54.60;;;;;;4994896;28;20045;-74
2022/05/29 10:37:01;;;;;;;2.05;0.28;;;18.10;54.30;;;;;;5008080;28;22444;-73
2022/05/29 10:39:31;;;;;;;0.88;0.15;;;18.20;54.60;;;;;;4994449;28;20235;-74
2022/05/29 10:42:03;;;;;;;2.25;0.10;;;18.30;54.30;;;;;;4992666;28;20521;-73
2022/05/29 10:44:46;;;;;;;1.92;0.20;;;18.30;54.40;;;;;;5011186;28;20053;-74
2022/05/29 10:47:16;;;;;;;2.85;0.15;;;18.40;55.30;;;;;;4993957;28;20515;-74
2022/05/29 10:50:15;;;;;;;1.25;0.20;;;18.20;54.10;;;;;;4992380;28;20054;-74
2022/05/29 10:53:18;;;;;;;2.53;0.15;;;18.30;55.10;;;;;;4989708;28;20080;-71
2022/05/29 10:55:54;;;;;;;;;;;18.40;53.70;;;;;;4951944;28;20080;-73
2022/05/29 10:58:23;;;;;;;1.55;0.40;;;18.40;54.00;;;;;;4998928;28;19929;-73
2022/05/29 11:04:18;;;;;;;0.82;0.30;;;18.40;53.40;;;;;;4982539;28;20048;-72
2022/05/29 11:07:21;;;;;;;2.15;0.10;;;18.50;54.80;;;;;;4998379;28;22438;-72
2022/05/29 11:10:32;;;;;;;2.60;0.20;;;18.60;54.30;;;;;;4973112;28;20219;-72
2022/05/29 11:13:25;;;;;;;2.08;0.20;;;18.60;53.50;;;;;;4920385;28;20075;-72
2022/05/29 11:16:11;;;;;;;;;;;18.50;53.70;;;;;;4984486;28;20199;-72
2022/05/29 11:18:57;;;;;;;3.03;0.22;;;18.70;54.90;;;;;;4998173;28;19936;-71
2022/05/29 11:21:51;;;;;;;1.45;0.10;;;18.80;54.00;;;;;;4973822;28;20282;-72
2022/05/29 11:24:55;;;;;;;0.68;0.20;;;18.90;54.20;;;;;;4984209;28;20532;-73
2022/05/29 11:28:07;;;;;;;1.48;0.20;;;18.90;53.20;;;;;;4982459;28;20142;-72
2022/05/29 11:31:11;;;;;;;0.45;0.10;;;18.80;53.60;;;;;;4980105;28;20481;-72
2022/05/29 11:34:05;;;;;;;3.38;0.30;;;18.80;53.40;;;;;;4977375;28;20077;-72
2022/05/29 11:36:38;;;;;;;0.98;0.10;;;18.70;52.40;;;;;;4962869;28;20049;-72
2022/05/29 11:39:16;;;;;;;2.40;0.20;;;18.60;52.50;;;;;;4987186;28;20050;-72
2022/05/29 11:41:50;;;;;;;1.65;0.10;;;18.50;52.70;;;;;;4988331;28;20176;-72
2022/05/29 11:44:31;;;;;;;0.90;0.15;;;18.50;52.20;;;;;;4985058;28;20049;-72
2022/05/29 11:53:09;;;;;;;0.38;0.10;;;18.40;52.60;;;;;;4973041;28;20053;-73
2022/05/29 11:55:42;;;;;;;0.82;0.20;;;18.50;51.70;;;;;;4966756;28;20057;-72
2022/05/29 11:58:11;;;;;;;;;;;18.50;52.10;;;;;;4965876;28;20049;-72
2022/05/29 12:00:58;;;;;;;0.73;0.10;;;18.40;50.20;;;;;;5012347;28;19959;-73
2022/05/29 12:03:43;;;;;;;2.38;0.10;;;18.30;51.50;;;;;;4980933;28;20049;-72
2022/05/29 12:06:23;;;;;;;0.80;0.10;;;18.40;51.40;;;;;;4987043;28;21378;-72
2022/05/29 12:09:00;;;;;;;1.20;0.20;;;18.40;51.30;;;;;;4987461;28;20174;-74
2022/05/29 12:11:49;;;;;;;1.13;0.10;;;18.40;51.60;;;;;;4978163;28;20098;-72
2022/05/29 12:14:22;;;;;;;3.15;0.10;;;18.50;50.20;;;;;;5002283;28;20053;-73
2022/05/29 12:16:59;;;;;;;0.98;0.15;;;18.30;50.10;;;;;;5002093;28;20086;-72
2022/05/29 12:19:34;;;;;;;1.27;0.10;;;18.30;50.00;;;;;;4984752;28;20053;-71
2022/05/29 12:22:08;;;;;;;1.08;0.10;;;18.30;49.00;;;;;;4981643;28;20045;-72
2022/05/29 12:24:41;;;;;;;0.60;0.10;;;18.40;50.00;;;;;;4984348;28;20175;-71
2022/05/29 12:27:21;;;;;;;2.05;0.38;;;18.50;48.80;;;;;;4983450;28;20064;-73
2022/05/29 12:30:06;;;;;;;1.05;0.10;;;18.50;48.70;;;;;;4978806;28;20045;-72
2022/05/29 12:32:35;;;;;;;0.85;0.30;;;18.60;48.90;;;;;;4970566;28;20052;-72
2022/05/29 12:35:14;;;;;;;1.27;0.10;;;18.50;49.90;;;;;;4979617;28;20045;-72
2022/05/29 12:37:56;;;;;;;1.10;0.10;;;18.40;47.50;;;;;;4982470;28;20049;-74
2022/05/29 12:40:59;;;;;;;2.10;0.10;;;18.40;48.30;;;;;;4988438;28;20132;-72
2022/05/29 12:43:44;;;;;;;0.43;0.10;;;18.30;49.40;;;;;;4923924;28;20050;-71
2022/05/29 12:46:38;;;;;;;0.20;0.08;;;18.30;48.70;;;;;;4940430;28;20072;-72
2022/05/29 12:49:17;;;;;;;0.20;0.00;;;18.20;49.10;;;;;;4957937;28;20082;-72
2022/05/29 12:52:02;;;;;;;1.08;0.10;;;18.10;48.80;;;;;;4956018;28;20046;-73
2022/05/29 12:54:47;;;;;;;0.20;0.05;;;18.10;49.40;;;;;;4942529;28;20935;-72
2022/05/29 12:57:34;;;;;;;1.55;0.10;;;18.10;49.10;;;;;;4953879;28;20041;-71
2022/05/29 13:00:46;;;;;;;0.10;0.00;;;18.10;49.50;;;;;;4957497;28;20057;-72
2022/05/29 13:03:55;;;;;;;0.50;0.10;;;18.00;49.10;;;;;;4946691;28;20188;-71
2022/05/29 13:06:27;;;;;;;0.47;0.00;;;18.00;50.10;;;;;;4969489;28;20130;-72
2022/05/29 13:09:15;;;;;;;1.40;0.10;;;18.00;50.30;;;;;;4930961;28;20058;-71
2022/05/29 13:12:24;;;;;;;1.50;0.63;;;17.90;49.30;;;;;;4950064;28;20924;-73
2022/05/29 13:14:56;;;;;;;2.08;0.08;;;17.80;50.10;;;;;;4922738;28;20383;-72
2022/05/29 13:17:26;;;;;;;;;;;17.70;50.40;;;;;;4934705;28;20050;-71
2022/05/29 13:20:11;;;;;;;2.65;0.52;;;17.70;51.50;;;;;;4937046;28;22419;-72
2022/05/29 13:22:51;;;;;;;2.17;0.10;;;17.80;51.20;;;;;;4935734;28;20051;-72
2022/05/29 13:25:30;;;;;;;0.85;0.10;;;17.90;51.80;;;;;;4938708;28;20063;-71
2022/05/29 13:27:59;;;;;;;0.75;0.13;;;17.90;51.30;;;;;;4937648;28;20180;-71
2022/05/29 13:30:40;;;;;;;2.90;0.10;;;17.80;51.40;;;;;;4936797;28;20084;-71
2022/05/29 13:33:28;;;;;;;1.70;0.15;;;17.80;52.60;;;;;;4931163;28;20061;-71
2022/05/29 13:35:59;;;;;;;0.50;0.10;;;17.70;52.30;;;;;;4937021;28;20070;-71
2022/05/29 13:38:44;;;;;;;0.50;0.10;;;17.70;51.80;;;;;;4937248;28;20057;-72
2022/05/29 13:41:29;;;;;;;2.97;0.10;;;17.70;53.10;;;;;;4924649;28;20073;-71
2022/05/29 13:43:57;;;;;;;0.52;0.10;;;17.60;52.70;;;;;;4942455;28;20067;-72
2022/05/29 13:46:27;;;;;;;0.47;0.10;;;17.60;52.70;;;;;;4930168;28;21222;-73
2022/05/29 13:49:17;;;;;;;0.20;0.10;;;17.40;52.10;;;;;;4945371;28;21169;-71
2022/05/29 13:51:44;;;;;;;2.03;0.20;;;17.40;53.80;;;;;;4943454;28;20140;-72
2022/05/29 13:54:28;;;;;;;0.88;0.10;;;17.60;54.80;;;;;;4948080;28;20046;-71
2022/05/29 13:57:05;;;;;;;1.50;0.17;;;17.60;53.10;;;;;;4924219;28;20533;-71
2022/05/29 14:05:46;;;;;;;0.95;0.10;;;17.50;53.10;;;;;;4926501;28;20050;-71
2022/05/29 14:08:19;;;;;;;0.32;0.10;;;17.50;54.40;;;;;;4942289;28;22523;-72